sensor_id;sensor_type;location;lat;lon;timestamp;P1;durP1;ratioP1;P2;durP2;ratioP2
40997;SDS011;26740;45.944;12.480;2024-02-16T00:01:20;32.00;;;23.70;;
40997;SDS011;26740;45.944;12.480;2024-02-16T00:03:45;42.90;;;24.50;;
40997;SDS011;26740;45.944;12.480;2024-02-16T00:06:12;31.55;;;23.98;;
40997;SDS011;26740;45.944;12.480;2024-02-16T00:08:37;39.45;;;24.30;;
40997;SDS011;26740;45.944;12.480;2024-02-16T00:11:04;39.13;;;24.42;;
40997;SDS011;26740;45.944;12.480;2024-02-16T00:13:30;31.13;;;25.45;;
40997;SDS011;26740;45.944;12.480;2024-02-16T00:15:56;29.65;;;22.95;;
40997;SDS011;26740;45.944;12.480;2024-02-16T00:18:23;27.80;;;22.30;;
40997;SDS011;26740;45.944;12.480;2024-02-16T00:20:49;34.13;;;23.77;;
40997;SDS011;26740;45.944;12.480;2024-02-16T00:23:14;32.45;;;23.83;;
40997;SDS011;26740;45.944;12.480;2024-02-16T00:25:40;29.90;;;23.00;;
40997;SDS011;26740;45.944;12.480;2024-02-16T00:28:06;34.72;;;24.88;;
40997;SDS011;26740;45.944;12.480;2024-02-16T00:30:32;32.97;;;23.02;;
40997;SDS011;26740;45.944;12.480;2024-02-16T00:32:58;39.45;;;25.08;;
40997;SDS011;26740;45.944;12.480;2024-02-16T00:35:23;39.90;;;25.95;;
40997;SDS011;26740;45.944;12.480;2024-02-16T00:37:49;41.03;;;24.10;;
40997;SDS011;26740;45.944;12.480;2024-02-16T00:40:15;36.30;;;24.33;;
40997;SDS011;26740;45.944;12.480;2024-02-16T00:42:40;38.53;;;24.27;;
40997;SDS011;26740;45.944;12.480;2024-02-16T00:45:06;39.83;;;24.98;;
40997;SDS011;26740;45.944;12.480;2024-02-16T00:47:33;44.53;;;26.17;;
40997;SDS011;26740;45.944;12.480;2024-02-16T00:49:59;35.65;;;23.17;;
40997;SDS011;26740;45.944;12.480;2024-02-16T00:52:25;35.20;;;25.67;;
40997;SDS011;26740;45.944;12.480;2024-02-16T00:54:50;40.00;;;24.55;;
40997;SDS011;26740;45.944;12.480;2024-02-16T00:57:16;39.75;;;26.00;;
40997;SDS011;26740;45.944;12.480;2024-02-16T00:59:41;48.35;;;27.15;;
40997;SDS011;26740;45.944;12.480;2024-02-16T01:02:07;61.67;;;25.70;;
40997;SDS011;26740;45.944;12.480;2024-02-16T01:04:35;63.28;;;25.33;;
40997;SDS011;26740;45.944;12.480;2024-02-16T01:07:01;61.95;;;26.30;;
40997;SDS011;26740;45.944;12.480;2024-02-16T01:09:26;53.08;;;26.73;;
40997;SDS011;26740;45.944;12.480;2024-02-16T01:11:52;63.58;;;24.60;;
40997;SDS011;26740;45.944;12.480;2024-02-16T01:14:18;62.95;;;23.35;;
40997;SDS011;26740;45.944;12.480;2024-02-16T01:16:44;67.03;;;23.90;;
40997;SDS011;26740;45.944;12.480;2024-02-16T01:19:11;45.13;;;23.60;;
40997;SDS011;26740;45.944;12.480;2024-02-16T01:21:38;40.00;;;23.80;;
40997;SDS011;26740;45.944;12.480;2024-02-16T01:24:04;51.22;;;23.00;;
40997;SDS011;26740;45.944;12.480;2024-02-16T01:26:34;38.75;;;22.45;;
40997;SDS011;26740;45.944;12.480;2024-02-16T01:28:59;35.92;;;21.63;;
40997;SDS011;26740;45.944;12.480;2024-02-16T01:31:27;37.40;;;22.05;;
40997;SDS011;26740;45.944;12.480;2024-02-16T01:33:52;39.75;;;22.27;;
40997;SDS011;26740;45.944;12.480;2024-02-16T01:36:18;32.75;;;22.25;;
40997;SDS011;26740;45.944;12.480;2024-02-16T01:38:44;37.88;;;23.65;;
40997;SDS011;26740;45.944;12.480;2024-02-16T01:41:09;33.05;;;22.92;;
40997;SDS011;26740;45.944;12.480;2024-02-16T01:43:36;33.10;;;23.85;;
40997;SDS011;26740;45.944;12.480;2024-02-16T01:46:01;36.80;;;24.77;;
40997;SDS011;26740;45.944;12.480;2024-02-16T01:48:27;45.30;;;24.05;;
40997;SDS011;26740;45.944;12.480;2024-02-16T01:50:53;51.42;;;26.13;;
40997;SDS011;26740;45.944;12.480;2024-02-16T01:53:19;37.05;;;24.58;;
40997;SDS011;26740;45.944;12.480;2024-02-16T01:55:46;34.60;;;23.80;;
40997;SDS011;26740;45.944;12.480;2024-02-16T01:58:12;37.38;;;24.45;;
40997;SDS011;26740;45.944;12.480;2024-02-16T02:00:38;29.63;;;24.02;;
40997;SDS011;26740;45.944;12.480;2024-02-16T02:03:05;36.58;;;26.17;;
40997;SDS011;26740;45.944;12.480;2024-02-16T02:05:31;35.47;;;24.30;;
40997;SDS011;26740;45.944;12.480;2024-02-16T02:07:57;35.90;;;23.05;;
40997;SDS011;26740;45.944;12.480;2024-02-16T02:10:22;34.05;;;24.95;;
40997;SDS011;26740;45.944;12.480;2024-02-16T02:12:48;30.92;;;24.27;;
40997;SDS011;26740;45.944;12.480;2024-02-16T02:15:13;26.70;;;22.08;;
40997;SDS011;26740;45.944;12.480;2024-02-16T02:17:40;40.47;;;24.90;;
40997;SDS011;26740;45.944;12.480;2024-02-16T02:20:06;31.77;;;24.23;;
40997;SDS011;26740;45.944;12.480;2024-02-16T02:22:38;42.47;;;23.60;;
40997;SDS011;26740;45.944;12.480;2024-02-16T02:25:04;37.38;;;23.20;;
40997;SDS011;26740;45.944;12.480;2024-02-16T02:27:30;47.50;;;24.45;;
40997;SDS011;26740;45.944;12.480;2024-02-16T02:29:56;42.47;;;23.38;;
40997;SDS011;26740;45.944;12.480;2024-02-16T02:32:23;41.63;;;22.70;;
40997;SDS011;26740;45.944;12.480;2024-02-16T02:34:49;35.70;;;22.60;;
40997;SDS011;26740;45.944;12.480;2024-02-16T02:37:15;37.03;;;23.80;;
40997;SDS011;26740;45.944;12.480;2024-02-16T02:39:40;32.35;;;23.45;;
40997;SDS011;26740;45.944;12.480;2024-02-16T02:42:06;44.15;;;23.73;;
40997;SDS011;26740;45.944;12.480;2024-02-16T02:44:33;53.50;;;24.88;;
40997;SDS011;26740;45.944;12.480;2024-02-16T02:46:59;34.20;;;22.02;;
40997;SDS011;26740;45.944;12.480;2024-02-16T02:49:24;33.63;;;22.05;;
40997;SDS011;26740;45.944;12.480;2024-02-16T02:51:50;34.85;;;21.27;;
40997;SDS011;26740;45.944;12.480;2024-02-16T02:54:16;37.42;;;22.63;;
40997;SDS011;26740;45.944;12.480;2024-02-16T02:56:41;52.15;;;24.17;;
40997;SDS011;26740;45.944;12.480;2024-02-16T02:59:07;38.78;;;20.77;;
40997;SDS011;26740;45.944;12.480;2024-02-16T03:01:34;36.65;;;23.77;;
40997;SDS011;26740;45.944;12.480;2024-02-16T03:04:00;41.47;;;22.35;;
40997;SDS011;26740;45.944;12.480;2024-02-16T03:06:26;39.42;;;22.38;;
40997;SDS011;26740;45.944;12.480;2024-02-16T03:08:52;41.70;;;23.15;;
40997;SDS011;26740;45.944;12.480;2024-02-16T03:11:18;37.45;;;22.20;;
40997;SDS011;26740;45.944;12.480;2024-02-16T03:13:43;36.53;;;23.95;;
40997;SDS011;26740;45.944;12.480;2024-02-16T03:16:09;32.35;;;23.85;;
40997;SDS011;26740;45.944;12.480;2024-02-16T03:18:34;30.65;;;23.40;;
40997;SDS011;26740;45.944;12.480;2024-02-16T03:21:01;32.85;;;21.73;;
40997;SDS011;26740;45.944;12.480;2024-02-16T03:23:26;32.47;;;22.13;;
40997;SDS011;26740;45.944;12.480;2024-02-16T03:25:53;47.97;;;23.25;;
40997;SDS011;26740;45.944;12.480;2024-02-16T03:28:18;36.55;;;24.27;;
40997;SDS011;26740;45.944;12.480;2024-02-16T03:30:45;34.45;;;22.50;;
40997;SDS011;26740;45.944;12.480;2024-02-16T03:33:12;33.90;;;23.83;;
40997;SDS011;26740;45.944;12.480;2024-02-16T03:35:39;34.92;;;23.67;;
40997;SDS011;26740;45.944;12.480;2024-02-16T03:38:07;37.75;;;22.98;;
40997;SDS011;26740;45.944;12.480;2024-02-16T03:40:33;37.08;;;23.85;;
40997;SDS011;26740;45.944;12.480;2024-02-16T03:42:58;28.70;;;22.27;;
40997;SDS011;26740;45.944;12.480;2024-02-16T03:45:24;36.63;;;23.27;;
40997;SDS011;26740;45.944;12.480;2024-02-16T03:47:52;32.45;;;21.42;;
40997;SDS011;26740;45.944;12.480;2024-02-16T03:50:18;44.15;;;23.73;;
40997;SDS011;26740;45.944;12.480;2024-02-16T03:52:44;35.22;;;23.50;;
40997;SDS011;26740;45.944;12.480;2024-02-16T03:55:10;36.58;;;22.73;;
40997;SDS011;26740;45.944;12.480;2024-02-16T03:57:36;31.77;;;22.13;;
40997;SDS011;26740;45.944;12.480;2024-02-16T04:00:02;43.30;;;22.80;;
40997;SDS011;26740;45.944;12.480;2024-02-16T04:02:31;37.50;;;23.15;;
40997;SDS011;26740;45.944;12.480;2024-02-16T04:04:56;33.80;;;22.05;;
40997;SDS011;26740;45.944;12.480;2024-02-16T04:07:22;34.47;;;22.55;;
40997;SDS011;26740;45.944;12.480;2024-02-16T04:09:48;41.50;;;22.20;;
40997;SDS011;26740;45.944;12.480;2024-02-16T04:12:14;37.25;;;21.23;;
40997;SDS011;26740;45.944;12.480;2024-02-16T04:14:40;35.30;;;21.92;;
40997;SDS011;26740;45.944;12.480;2024-02-16T04:17:06;36.28;;;23.00;;
40997;SDS011;26740;45.944;12.480;2024-02-16T04:19:32;30.83;;;21.77;;
40997;SDS011;26740;45.944;12.480;2024-02-16T04:21:58;29.50;;;20.67;;
40997;SDS011;26740;45.944;12.480;2024-02-16T04:24:23;38.05;;;23.65;;
40997;SDS011;26740;45.944;12.480;2024-02-16T04:26:49;33.25;;;22.45;;
40997;SDS011;26740;45.944;12.480;2024-02-16T04:29:15;37.88;;;23.42;;
40997;SDS011;26740;45.944;12.480;2024-02-16T04:31:41;35.40;;;20.77;;
40997;SDS011;26740;45.944;12.480;2024-02-16T04:34:10;39.25;;;22.88;;
40997;SDS011;26740;45.944;12.480;2024-02-16T04:36:36;34.17;;;22.27;;
40997;SDS011;26740;45.944;12.480;2024-02-16T04:39:02;38.00;;;22.00;;
40997;SDS011;26740;45.944;12.480;2024-02-16T04:41:28;39.45;;;22.27;;
40997;SDS011;26740;45.944;12.480;2024-02-16T04:43:54;31.00;;;21.20;;
40997;SDS011;26740;45.944;12.480;2024-02-16T04:46:19;34.88;;;21.08;;
40997;SDS011;26740;45.944;12.480;2024-02-16T04:48:46;32.53;;;20.35;;
40997;SDS011;26740;45.944;12.480;2024-02-16T04:51:11;34.35;;;22.42;;
40997;SDS011;26740;45.944;12.480;2024-02-16T04:53:37;33.00;;;20.38;;
40997;SDS011;26740;45.944;12.480;2024-02-16T04:56:03;35.35;;;19.20;;
40997;SDS011;26740;45.944;12.480;2024-02-16T04:58:30;33.35;;;21.65;;
40997;SDS011;26740;45.944;12.480;2024-02-16T05:00:56;41.20;;;20.73;;
40997;SDS011;26740;45.944;12.480;2024-02-16T05:03:22;39.83;;;21.85;;
40997;SDS011;26740;45.944;12.480;2024-02-16T05:05:48;48.80;;;24.00;;
40997;SDS011;26740;45.944;12.480;2024-02-16T05:08:14;56.65;;;23.00;;
40997;SDS011;26740;45.944;12.480;2024-02-16T05:10:39;40.20;;;18.50;;
40997;SDS011;26740;45.944;12.480;2024-02-16T05:13:05;45.05;;;20.10;;
40997;SDS011;26740;45.944;12.480;2024-02-16T05:15:30;49.13;;;20.38;;
40997;SDS011;26740;45.944;12.480;2024-02-16T05:17:56;38.55;;;20.42;;
40997;SDS011;26740;45.944;12.480;2024-02-16T05:20:22;55.40;;;22.45;;
40997;SDS011;26740;45.944;12.480;2024-02-16T05:22:48;51.67;;;21.30;;
40997;SDS011;26740;45.944;12.480;2024-02-16T05:25:17;49.45;;;19.67;;
40997;SDS011;26740;45.944;12.480;2024-02-16T05:27:43;54.38;;;20.17;;
40997;SDS011;26740;45.944;12.480;2024-02-16T05:30:16;44.53;;;20.23;;
40997;SDS011;26740;45.944;12.480;2024-02-16T05:32:42;66.88;;;21.25;;
40997;SDS011;26740;45.944;12.480;2024-02-16T05:35:08;40.17;;;20.23;;
40997;SDS011;26740;45.944;12.480;2024-02-16T05:37:38;74.32;;;22.63;;
40997;SDS011;26740;45.944;12.480;2024-02-16T05:40:08;45.88;;;20.40;;
40997;SDS011;26740;45.944;12.480;2024-02-16T05:42:44;36.80;;;19.60;;
40997;SDS011;26740;45.944;12.480;2024-02-16T05:45:11;41.10;;;19.38;;
40997;SDS011;26740;45.944;12.480;2024-02-16T05:47:37;39.78;;;19.77;;
40997;SDS011;26740;45.944;12.480;2024-02-16T05:50:04;28.60;;;18.48;;
40997;SDS011;26740;45.944;12.480;2024-02-16T05:52:30;32.90;;;18.00;;
40997;SDS011;26740;45.944;12.480;2024-02-16T05:54:56;30.77;;;17.40;;
40997;SDS011;26740;45.944;12.480;2024-02-16T05:57:21;39.03;;;17.70;;
40997;SDS011;26740;45.944;12.480;2024-02-16T05:59:48;31.65;;;17.67;;
40997;SDS011;26740;45.944;12.480;2024-02-16T06:02:14;23.25;;;17.17;;
40997;SDS011;26740;45.944;12.480;2024-02-16T06:04:40;36.00;;;18.27;;
40997;SDS011;26740;45.944;12.480;2024-02-16T06:07:07;39.88;;;19.10;;
40997;SDS011;26740;45.944;12.480;2024-02-16T06:09:33;28.13;;;16.83;;
40997;SDS011;26740;45.944;12.480;2024-02-16T06:12:00;33.58;;;17.90;;
40997;SDS011;26740;45.944;12.480;2024-02-16T06:14:28;39.97;;;18.50;;
40997;SDS011;26740;45.944;12.480;2024-02-16T06:16:55;23.77;;;17.17;;
40997;SDS011;26740;45.944;12.480;2024-02-16T06:19:21;23.27;;;17.13;;
40997;SDS011;26740;45.944;12.480;2024-02-16T06:21:46;27.90;;;16.83;;
40997;SDS011;26740;45.944;12.480;2024-02-16T06:24:12;21.58;;;17.20;;
40997;SDS011;26740;45.944;12.480;2024-02-16T06:26:38;31.33;;;16.88;;
40997;SDS011;26740;45.944;12.480;2024-02-16T06:29:03;26.48;;;16.52;;
40997;SDS011;26740;45.944;12.480;2024-02-16T06:31:29;30.48;;;18.05;;
40997;SDS011;26740;45.944;12.480;2024-02-16T06:33:54;22.65;;;17.73;;
40997;SDS011;26740;45.944;12.480;2024-02-16T06:36:21;26.17;;;18.10;;
40997;SDS011;26740;45.944;12.480;2024-02-16T06:38:48;25.42;;;17.50;;
40997;SDS011;26740;45.944;12.480;2024-02-16T06:41:13;26.73;;;17.20;;
40997;SDS011;26740;45.944;12.480;2024-02-16T06:43:39;24.20;;;18.23;;
40997;SDS011;26740;45.944;12.480;2024-02-16T06:46:05;24.08;;;18.08;;
40997;SDS011;26740;45.944;12.480;2024-02-16T06:48:31;26.60;;;18.08;;
40997;SDS011;26740;45.944;12.480;2024-02-16T06:50:56;22.02;;;17.30;;
40997;SDS011;26740;45.944;12.480;2024-02-16T06:53:22;31.73;;;16.23;;
40997;SDS011;26740;45.944;12.480;2024-02-16T06:55:48;26.08;;;17.60;;
40997;SDS011;26740;45.944;12.480;2024-02-16T06:58:14;22.52;;;16.60;;
40997;SDS011;26740;45.944;12.480;2024-02-16T07:00:39;24.15;;;17.90;;
40997;SDS011;26740;45.944;12.480;2024-02-16T07:03:07;28.35;;;18.65;;
40997;SDS011;26740;45.944;12.480;2024-02-16T07:05:33;20.27;;;15.93;;
40997;SDS011;26740;45.944;12.480;2024-02-16T07:07:59;19.17;;;16.73;;
40997;SDS011;26740;45.944;12.480;2024-02-16T07:10:25;21.00;;;16.27;;
40997;SDS011;26740;45.944;12.480;2024-02-16T07:12:51;19.33;;;17.23;;
40997;SDS011;26740;45.944;12.480;2024-02-16T07:15:16;23.05;;;15.48;;
40997;SDS011;26740;45.944;12.480;2024-02-16T07:17:42;19.98;;;15.55;;
40997;SDS011;26740;45.944;12.480;2024-02-16T07:20:08;18.35;;;14.65;;
40997;SDS011;26740;45.944;12.480;2024-02-16T07:22:33;18.17;;;16.25;;
40997;SDS011;26740;45.944;12.480;2024-02-16T07:24:59;17.48;;;15.13;;
40997;SDS011;26740;45.944;12.480;2024-02-16T07:27:25;16.38;;;14.70;;
40997;SDS011;26740;45.944;12.480;2024-02-16T07:29:51;16.42;;;13.95;;
40997;SDS011;26740;45.944;12.480;2024-02-16T07:32:17;17.20;;;15.40;;
40997;SDS011;26740;45.944;12.480;2024-02-16T07:34:46;16.67;;;14.95;;
40997;SDS011;26740;45.944;12.480;2024-02-16T07:37:13;17.05;;;15.30;;
40997;SDS011;26740;45.944;12.480;2024-02-16T07:39:41;15.35;;;13.55;;
40997;SDS011;26740;45.944;12.480;2024-02-16T07:42:06;16.65;;;13.95;;
40997;SDS011;26740;45.944;12.480;2024-02-16T07:44:35;14.35;;;12.93;;
40997;SDS011;26740;45.944;12.480;2024-02-16T07:47:01;15.15;;;13.55;;
40997;SDS011;26740;45.944;12.480;2024-02-16T07:49:27;15.73;;;14.23;;
40997;SDS011;26740;45.944;12.480;2024-02-16T07:51:53;13.65;;;11.88;;
40997;SDS011;26740;45.944;12.480;2024-02-16T07:54:18;13.27;;;11.25;;
40997;SDS011;26740;45.944;12.480;2024-02-16T07:56:44;23.13;;;13.82;;
40997;SDS011;26740;45.944;12.480;2024-02-16T07:59:10;20.77;;;13.90;;
40997;SDS011;26740;45.944;12.480;2024-02-16T08:01:36;16.77;;;13.23;;
40997;SDS011;26740;45.944;12.480;2024-02-16T08:04:01;18.98;;;13.57;;
40997;SDS011;26740;45.944;12.480;2024-02-16T08:06:27;18.33;;;12.80;;
40997;SDS011;26740;45.944;12.480;2024-02-16T08:08:53;19.55;;;12.73;;
40997;SDS011;26740;45.944;12.480;2024-02-16T08:11:19;14.60;;;12.27;;
40997;SDS011;26740;45.944;12.480;2024-02-16T08:13:45;14.50;;;10.68;;
40997;SDS011;26740;45.944;12.480;2024-02-16T08:16:11;17.77;;;11.75;;
40997;SDS011;26740;45.944;12.480;2024-02-16T08:18:37;14.23;;;12.30;;
40997;SDS011;26740;45.944;12.480;2024-02-16T08:21:03;16.05;;;11.63;;
40997;SDS011;26740;45.944;12.480;2024-02-16T08:23:28;14.98;;;11.13;;
40997;SDS011;26740;45.944;12.480;2024-02-16T08:25:55;13.90;;;11.27;;
40997;SDS011;26740;45.944;12.480;2024-02-16T08:28:22;12.02;;;10.65;;
40997;SDS011;26740;45.944;12.480;2024-02-16T08:30:48;11.68;;;10.57;;
40997;SDS011;26740;45.944;12.480;2024-02-16T08:33:13;14.77;;;11.32;;
40997;SDS011;26740;45.944;12.480;2024-02-16T08:35:39;13.02;;;10.88;;
40997;SDS011;26740;45.944;12.480;2024-02-16T08:38:05;12.10;;;10.80;;
40997;SDS011;26740;45.944;12.480;2024-02-16T08:40:32;12.75;;;11.38;;
40997;SDS011;26740;45.944;12.480;2024-02-16T08:42:58;14.52;;;11.55;;
40997;SDS011;26740;45.944;12.480;2024-02-16T08:45:26;13.23;;;10.77;;
40997;SDS011;26740;45.944;12.480;2024-02-16T08:47:51;21.77;;;14.07;;
40997;SDS011;26740;45.944;12.480;2024-02-16T08:50:17;17.40;;;12.93;;
40997;SDS011;26740;45.944;12.480;2024-02-16T08:52:43;18.60;;;13.75;;
40997;SDS011;26740;45.944;12.480;2024-02-16T08:55:10;19.08;;;13.38;;
40997;SDS011;26740;45.944;12.480;2024-02-16T08:57:35;16.60;;;13.05;;
40997;SDS011;26740;45.944;12.480;2024-02-16T09:00:02;20.33;;;12.95;;
40997;SDS011;26740;45.944;12.480;2024-02-16T09:02:28;15.93;;;10.23;;
40997;SDS011;26740;45.944;12.480;2024-02-16T09:04:54;23.35;;;11.20;;
40997;SDS011;26740;45.944;12.480;2024-02-16T09:07:20;17.50;;;11.70;;
40997;SDS011;26740;45.944;12.480;2024-02-16T09:09:46;13.93;;;11.25;;
40997;SDS011;26740;45.944;12.480;2024-02-16T09:12:12;15.10;;;10.68;;
40997;SDS011;26740;45.944;12.480;2024-02-16T09:14:37;17.42;;;12.43;;
40997;SDS011;26740;45.944;12.480;2024-02-16T09:17:03;15.00;;;11.15;;
40997;SDS011;26740;45.944;12.480;2024-02-16T09:19:29;15.75;;;11.80;;
40997;SDS011;26740;45.944;12.480;2024-02-16T09:21:54;13.43;;;11.65;;
40997;SDS011;26740;45.944;12.480;2024-02-16T09:24:22;14.23;;;11.68;;
40997;SDS011;26740;45.944;12.480;2024-02-16T09:26:50;12.55;;;11.18;;
40997;SDS011;26740;45.944;12.480;2024-02-16T09:29:15;17.15;;;11.75;;
40997;SDS011;26740;45.944;12.480;2024-02-16T09:31:43;18.15;;;11.40;;
40997;SDS011;26740;45.944;12.480;2024-02-16T09:34:08;17.85;;;10.70;;
40997;SDS011;26740;45.944;12.480;2024-02-16T09:36:34;14.02;;;11.55;;
40997;SDS011;26740;45.944;12.480;2024-02-16T09:39:02;11.88;;;10.35;;
40997;SDS011;26740;45.944;12.480;2024-02-16T09:41:28;16.10;;;11.10;;
40997;SDS011;26740;45.944;12.480;2024-02-16T09:43:53;11.73;;;9.65;;
40997;SDS011;26740;45.944;12.480;2024-02-16T09:46:21;11.63;;;9.80;;
40997;SDS011;26740;45.944;12.480;2024-02-16T09:48:48;11.27;;;9.25;;
40997;SDS011;26740;45.944;12.480;2024-02-16T09:51:17;12.13;;;9.05;;
40997;SDS011;26740;45.944;12.480;2024-02-16T09:53:43;10.02;;;8.63;;
40997;SDS011;26740;45.944;12.480;2024-02-16T09:56:17;10.43;;;9.02;;
40997;SDS011;26740;45.944;12.480;2024-02-16T09:58:42;9.90;;;8.98;;
40997;SDS011;26740;45.944;12.480;2024-02-16T10:01:16;10.32;;;9.23;;
40997;SDS011;26740;45.944;12.480;2024-02-16T10:03:44;9.23;;;8.40;;
40997;SDS011;26740;45.944;12.480;2024-02-16T10:06:10;9.85;;;8.98;;
40997;SDS011;26740;45.944;12.480;2024-02-16T10:08:52;10.50;;;9.50;;
40997;SDS011;26740;45.944;12.480;2024-02-16T10:11:22;10.70;;;9.52;;
40997;SDS011;26740;45.944;12.480;2024-02-16T10:16:24;10.65;;;8.27;;
40997;SDS011;26740;45.944;12.480;2024-02-16T10:18:50;11.38;;;9.32;;
40997;SDS011;26740;45.944;12.480;2024-02-16T10:21:26;10.07;;;9.07;;
40997;SDS011;26740;45.944;12.480;2024-02-16T10:24:04;12.18;;;10.75;;
40997;SDS011;26740;45.944;12.480;2024-02-16T10:26:34;12.10;;;10.52;;
40997;SDS011;26740;45.944;12.480;2024-02-16T10:29:05;12.43;;;10.13;;
40997;SDS011;26740;45.944;12.480;2024-02-16T10:31:31;12.98;;;10.68;;
40997;SDS011;26740;45.944;12.480;2024-02-16T10:34:02;16.08;;;11.20;;
40997;SDS011;26740;45.944;12.480;2024-02-16T10:36:31;14.07;;;11.55;;
40997;SDS011;26740;45.944;12.480;2024-02-16T10:38:58;13.52;;;11.70;;
40997;SDS011;26740;45.944;12.480;2024-02-16T10:41:28;15.60;;;11.77;;
40997;SDS011;26740;45.944;12.480;2024-02-16T10:43:54;18.85;;;13.88;;
40997;SDS011;26740;45.944;12.480;2024-02-16T10:46:20;13.85;;;12.20;;
40997;SDS011;26740;45.944;12.480;2024-02-16T10:48:48;15.13;;;12.63;;
40997;SDS011;26740;45.944;12.480;2024-02-16T10:51:14;16.75;;;14.13;;
40997;SDS011;26740;45.944;12.480;2024-02-16T10:53:45;17.30;;;14.13;;
40997;SDS011;26740;45.944;12.480;2024-02-16T10:56:13;17.25;;;14.55;;
40997;SDS011;26740;45.944;12.480;2024-02-16T10:58:39;18.17;;;15.30;;
40997;SDS011;26740;45.944;12.480;2024-02-16T11:01:08;22.02;;;17.23;;
40997;SDS011;26740;45.944;12.480;2024-02-16T11:03:37;22.80;;;19.25;;
40997;SDS011;26740;45.944;12.480;2024-02-16T11:06:17;22.70;;;18.63;;
40997;SDS011;26740;45.944;12.480;2024-02-16T11:08:43;20.33;;;15.85;;
40997;SDS011;26740;45.944;12.480;2024-02-16T11:11:09;18.88;;;16.20;;
40997;SDS011;26740;45.944;12.480;2024-02-16T11:13:38;28.08;;;21.30;;
40997;SDS011;26740;45.944;12.480;2024-02-16T11:16:09;23.52;;;18.88;;
40997;SDS011;26740;45.944;12.480;2024-02-16T11:18:39;23.92;;;18.73;;
40997;SDS011;26740;45.944;12.480;2024-02-16T11:21:11;26.77;;;19.25;;
40997;SDS011;26740;45.944;12.480;2024-02-16T11:23:40;22.80;;;19.13;;
40997;SDS011;26740;45.944;12.480;2024-02-16T11:26:10;20.70;;;16.08;;
40997;SDS011;26740;45.944;12.480;2024-02-16T11:28:37;21.40;;;16.20;;
40997;SDS011;26740;45.944;12.480;2024-02-16T11:31:05;29.45;;;19.15;;
40997;SDS011;26740;45.944;12.480;2024-02-16T11:33:32;29.05;;;20.17;;
40997;SDS011;26740;45.944;12.480;2024-02-16T11:36:02;26.42;;;19.73;;
40997;SDS011;26740;45.944;12.480;2024-02-16T11:38:33;29.75;;;22.33;;
40997;SDS011;26740;45.944;12.480;2024-02-16T11:41:00;29.02;;;22.80;;
40997;SDS011;26740;45.944;12.480;2024-02-16T11:43:30;33.03;;;24.65;;
40997;SDS011;26740;45.944;12.480;2024-02-16T11:46:10;28.52;;;23.08;;
40997;SDS011;26740;45.944;12.480;2024-02-16T11:48:36;29.13;;;23.35;;
40997;SDS011;26740;45.944;12.480;2024-02-16T11:51:02;32.03;;;23.90;;
40997;SDS011;26740;45.944;12.480;2024-02-16T11:53:32;29.20;;;23.35;;
40997;SDS011;26740;45.944;12.480;2024-02-16T11:55:58;35.15;;;26.15;;
40997;SDS011;26740;45.944;12.480;2024-02-16T11:58:25;30.83;;;24.38;;
40997;SDS011;26740;45.944;12.480;2024-02-16T12:00:51;31.08;;;24.33;;
40997;SDS011;26740;45.944;12.480;2024-02-16T12:03:21;31.02;;;25.88;;
40997;SDS011;26740;45.944;12.480;2024-02-16T12:05:54;31.38;;;24.52;;
40997;SDS011;26740;45.944;12.480;2024-02-16T12:08:22;30.55;;;24.92;;
40997;SDS011;26740;45.944;12.480;2024-02-16T12:10:48;32.72;;;25.50;;
40997;SDS011;26740;45.944;12.480;2024-02-16T12:13:18;32.80;;;25.10;;
40997;SDS011;26740;45.944;12.480;2024-02-16T12:15:45;28.35;;;22.48;;
40997;SDS011;26740;45.944;12.480;2024-02-16T12:18:19;37.50;;;25.67;;
40997;SDS011;26740;45.944;12.480;2024-02-16T12:21:01;29.42;;;24.20;;
40997;SDS011;26740;45.944;12.480;2024-02-16T12:23:31;28.70;;;23.30;;
40997;SDS011;26740;45.944;12.480;2024-02-16T12:25:58;33.80;;;24.27;;
40997;SDS011;26740;45.944;12.480;2024-02-16T12:28:28;31.88;;;24.30;;
40997;SDS011;26740;45.944;12.480;2024-02-16T12:30:58;31.17;;;23.73;;
40997;SDS011;26740;45.944;12.480;2024-02-16T12:33:25;33.50;;;23.95;;
40997;SDS011;26740;45.944;12.480;2024-02-16T12:35:51;33.63;;;25.80;;
40997;SDS011;26740;45.944;12.480;2024-02-16T12:38:17;31.02;;;25.00;;
40997;SDS011;26740;45.944;12.480;2024-02-16T12:40:46;32.53;;;24.60;;
40997;SDS011;26740;45.944;12.480;2024-02-16T12:43:12;31.15;;;24.83;;
40997;SDS011;26740;45.944;12.480;2024-02-16T12:45:39;30.63;;;24.40;;
40997;SDS011;26740;45.944;12.480;2024-02-16T12:48:05;30.27;;;23.30;;
40997;SDS011;26740;45.944;12.480;2024-02-16T12:50:31;31.90;;;23.73;;
40997;SDS011;26740;45.944;12.480;2024-02-16T12:52:57;32.28;;;23.77;;
40997;SDS011;26740;45.944;12.480;2024-02-16T12:55:23;30.65;;;23.13;;
40997;SDS011;26740;45.944;12.480;2024-02-16T12:57:49;31.92;;;22.33;;
40997;SDS011;26740;45.944;12.480;2024-02-16T13:00:16;33.65;;;23.77;;
40997;SDS011;26740;45.944;12.480;2024-02-16T13:02:42;29.67;;;22.15;;
40997;SDS011;26740;45.944;12.480;2024-02-16T13:05:08;32.60;;;24.90;;
40997;SDS011;26740;45.944;12.480;2024-02-16T13:07:34;34.65;;;24.40;;
40997;SDS011;26740;45.944;12.480;2024-02-16T13:09:59;33.03;;;23.55;;
40997;SDS011;26740;45.944;12.480;2024-02-16T13:12:25;30.13;;;23.23;;
40997;SDS011;26740;45.944;12.480;2024-02-16T13:14:51;26.95;;;20.65;;
40997;SDS011;26740;45.944;12.480;2024-02-16T13:17:16;25.60;;;21.00;;
40997;SDS011;26740;45.944;12.480;2024-02-16T13:19:42;36.70;;;26.05;;
40997;SDS011;26740;45.944;12.480;2024-02-16T13:22:08;28.50;;;22.98;;
40997;SDS011;26740;45.944;12.480;2024-02-16T13:24:33;35.28;;;24.90;;
40997;SDS011;26740;45.944;12.480;2024-02-16T13:26:59;30.75;;;23.15;;
40997;SDS011;26740;45.944;12.480;2024-02-16T13:29:25;28.52;;;21.83;;
40997;SDS011;26740;45.944;12.480;2024-02-16T13:31:51;30.08;;;23.13;;
40997;SDS011;26740;45.944;12.480;2024-02-16T13:34:17;31.65;;;22.20;;
40997;SDS011;26740;45.944;12.480;2024-02-16T13:36:42;30.02;;;24.15;;
40997;SDS011;26740;45.944;12.480;2024-02-16T13:39:08;31.05;;;25.08;;
40997;SDS011;26740;45.944;12.480;2024-02-16T13:41:34;30.90;;;25.77;;
40997;SDS011;26740;45.944;12.480;2024-02-16T13:43:59;34.40;;;24.55;;
40997;SDS011;26740;45.944;12.480;2024-02-16T13:46:26;31.83;;;23.67;;
40997;SDS011;26740;45.944;12.480;2024-02-16T13:48:51;31.00;;;23.45;;
40997;SDS011;26740;45.944;12.480;2024-02-16T13:51:17;30.17;;;23.02;;
40997;SDS011;26740;45.944;12.480;2024-02-16T13:53:44;30.55;;;23.08;;
40997;SDS011;26740;45.944;12.480;2024-02-16T13:56:10;32.95;;;23.55;;
40997;SDS011;26740;45.944;12.480;2024-02-16T13:58:35;35.80;;;25.00;;
40997;SDS011;26740;45.944;12.480;2024-02-16T14:01:02;27.55;;;22.25;;
40997;SDS011;26740;45.944;12.480;2024-02-16T14:03:28;31.35;;;23.45;;
40997;SDS011;26740;45.944;12.480;2024-02-16T14:05:55;30.75;;;21.38;;
40997;SDS011;26740;45.944;12.480;2024-02-16T14:08:21;27.20;;;21.67;;